createdAt,value
2023-05-23T18:20:26.123Z,9.762875
2023-05-23T18:21:26.113Z,9.762723
2023-05-23T18:22:26.084Z,9.762729
2023-05-23T18:23:26.100Z,9.762768
2023-05-23T18:24:26.152Z,9.762768
2023-05-23T18:25:26.053Z,9.762768
2023-05-23T18:26:26.051Z,9.762768
2023-05-23T18:27:26.057Z,9.762581
2023-05-23T18:28:26.065Z,9.763060
2023-05-23T18:29:26.098Z,9.763060
2023-05-23T18:30:26.020Z,9.763060
2023-05-23T18:31:26.005Z,9.762707
2023-05-23T18:32:26.016Z,9.762772
2023-05-23T18:33:26.090Z,9.762828
2023-05-23T18:34:27.251Z,9.762684
2023-05-23T18:35:26.992Z,9.762758
2023-05-23T18:36:25.953Z,9.762836
2023-05-23T18:37:25.938Z,9.762851
2023-05-23T18:38:25.980Z,9.762777
2023-05-23T18:39:25.928Z,9.762647
2023-05-23T18:40:25.926Z,9.762702
2023-05-23T18:41:25.901Z,9.762951
2023-05-23T18:42:25.896Z,9.762951
2023-05-23T18:43:25.899Z,9.762951
2023-05-23T18:44:25.885Z,9.762951
2023-05-23T18:45:25.886Z,9.762951
2023-05-23T18:46:25.949Z,9.762951
2023-05-23T18:47:25.869Z,9.762951
2023-05-23T18:48:25.851Z,9.762951
2023-05-23T18:49:25.840Z,9.762951
2023-05-23T18:50:25.846Z,9.762951
2023-05-23T18:51:25.834Z,9.762951
2023-05-23T18:52:25.824Z,9.762951
2023-05-23T18:53:25.784Z,9.762951
2023-05-23T18:54:25.761Z,9.762951
2023-05-23T18:55:25.784Z,9.762951
2023-05-23T18:56:25.763Z,9.762951
2023-05-23T18:57:25.768Z,9.762951
2023-05-23T18:58:25.795Z,9.762951
2023-05-23T18:59:25.721Z,9.762951
2023-05-23T19:00:25.726Z,9.762951
2023-05-23T19:01:25.740Z,9.762951
2023-05-23T19:02:25.839Z,9.762951
2023-05-23T19:03:25.723Z,9.762951
2023-05-23T19:04:25.787Z,9.762951
2023-05-23T19:05:25.668Z,9.762951
2023-05-23T19:06:25.673Z,9.762951
2023-05-23T19:07:25.660Z,9.762951
2023-05-23T19:08:25.645Z,9.762951
2023-05-23T19:09:26.632Z,9.762951
2023-05-23T19:10:26.613Z,9.762951
2023-05-23T19:11:25.619Z,9.762951
2023-05-23T19:12:25.620Z,9.762951
2023-05-23T19:13:25.599Z,9.762951
2023-05-23T19:14:25.593Z,9.762951
2023-05-23T19:15:25.592Z,9.762951
2023-05-23T19:16:25.595Z,9.762951
2023-05-23T19:17:25.563Z,9.762951
2023-05-23T19:18:25.568Z,9.762951
2023-05-23T19:19:26.896Z,9.762951
2023-05-23T19:20:25.541Z,9.762951
2023-05-23T19:21:25.512Z,9.762951
2023-05-23T19:22:27.757Z,9.762951
2023-05-23T19:23:25.498Z,9.762951
2023-05-23T19:24:25.539Z,9.762951
2023-05-23T19:25:25.499Z,9.762951
2023-05-23T19:26:25.482Z,9.762951
2023-05-23T19:27:25.487Z,9.762951
2023-05-23T19:28:25.454Z,9.762951
2023-05-23T19:29:25.477Z,9.762951
2023-05-23T19:30:25.455Z,9.762951
2023-05-23T19:31:25.484Z,9.762951
2023-05-23T19:32:25.497Z,9.762951
2023-05-23T19:33:25.407Z,9.762951
2023-05-23T19:34:25.400Z,9.762951
2023-05-23T19:35:25.425Z,9.762951
2023-05-23T19:36:25.379Z,9.762951
2023-05-23T19:37:25.358Z,9.762951
2023-05-23T19:38:25.356Z,9.762951
2023-05-23T19:39:25.353Z,9.762951
2023-05-23T19:40:25.320Z,9.762951
2023-05-23T19:41:25.344Z,9.762951
2023-05-23T19:42:25.341Z,9.762951
2023-05-23T19:43:25.329Z,9.762951
2023-05-23T19:44:25.307Z,9.762951
2023-05-23T19:45:25.312Z,9.762951
2023-05-23T19:46:25.320Z,9.762951
2023-05-23T19:47:25.320Z,9.762951
2023-05-23T19:48:25.266Z,9.762951
2023-05-23T19:49:25.256Z,9.762951
2023-05-23T19:50:25.227Z,9.762951
2023-05-23T19:51:25.209Z,9.762951
2023-05-23T19:52:25.234Z,9.762951
2023-05-23T19:53:25.222Z,9.762951
2023-05-23T19:54:26.184Z,9.762951
2023-05-23T19:55:25.182Z,9.762951
2023-05-23T19:56:25.155Z,9.762951
2023-05-23T19:57:25.179Z,9.762951
2023-05-23T19:58:25.160Z,9.762951
2023-05-23T19:59:25.157Z,9.762951
2023-05-23T20:00:25.130Z,9.762951
2023-05-23T20:01:25.205Z,9.762951
2023-05-23T20:02:25.159Z,9.762951
2023-05-23T20:03:25.162Z,9.762951
2023-05-23T20:04:25.131Z,9.762951
2023-05-23T20:05:25.091Z,9.762951
2023-05-23T20:06:25.106Z,9.762951
2023-05-23T20:07:25.079Z,9.762951
2023-05-23T20:08:25.076Z,9.762951
2023-05-23T20:09:25.041Z,9.762951
2023-05-23T20:10:25.053Z,9.762951
2023-05-23T20:11:25.022Z,9.762951
2023-05-23T20:12:25.054Z,9.762951
2023-05-23T20:13:25.000Z,9.762951
2023-05-23T20:14:25.016Z,9.762951
2023-05-23T20:15:38.495Z,9.762951
2023-05-23T20:16:27.032Z,9.762951
2023-05-23T20:17:24.990Z,9.762951
2023-05-23T20:18:24.952Z,9.762951
2023-05-23T20:19:24.973Z,9.762951
2023-05-23T20:20:24.926Z,9.762951
2023-05-23T20:21:24.931Z,9.762951
2023-05-23T20:22:24.904Z,9.762951
2023-05-23T20:23:24.888Z,9.762951
2023-05-23T20:24:24.941Z,9.762951
2023-05-23T20:25:24.893Z,9.762951
2023-05-23T20:26:24.870Z,9.762951
2023-05-23T20:27:24.877Z,9.762951
2023-05-23T20:28:24.847Z,9.762951
2023-05-23T20:29:24.843Z,9.762951
2023-05-23T20:30:24.863Z,9.762951
2023-05-23T20:31:24.860Z,9.762951
2023-05-23T20:32:24.847Z,9.762951
2023-05-23T20:33:24.808Z,9.762951
2023-05-23T20:34:24.790Z,9.762951
2023-05-23T20:35:24.791Z,9.762951
2023-05-23T20:36:24.772Z,9.762951
2023-05-23T20:37:24.772Z,9.762951
2023-05-23T20:38:24.803Z,9.762951
2023-05-23T20:39:24.733Z,9.762951
2023-05-23T20:40:24.751Z,9.762951
2023-05-23T20:41:24.708Z,9.762951
2023-05-23T20:42:24.724Z,9.762951
2023-05-23T20:43:24.707Z,9.762951
2023-05-23T20:44:24.694Z,9.762951
2023-05-23T20:45:24.679Z,9.762951
2023-05-23T20:46:24.756Z,9.762951
2023-05-23T20:47:24.667Z,9.762951
2023-05-23T20:48:24.656Z,9.762951
2023-05-23T20:49:24.688Z,9.762951
2023-05-23T20:50:24.668Z,9.762951
2023-05-23T20:51:24.724Z,9.762951
2023-05-23T20:52:24.618Z,9.762951
2023-05-23T20:53:24.588Z,9.762951
2023-05-23T20:54:25.628Z,9.762951
2023-05-23T20:55:27.106Z,9.762753
2023-05-23T20:56:24.580Z,9.762600
2023-05-23T20:57:25.168Z,9.762839
2023-05-23T20:58:24.684Z,9.762526
2023-05-23T20:59:24.659Z,9.762757
2023-05-23T21:00:24.600Z,9.762688
2023-05-23T21:01:24.568Z,9.762850
2023-05-23T21:02:24.602Z,9.762881
2023-05-23T21:03:24.573Z,9.762725
2023-05-23T21:04:25.166Z,9.762723
2023-05-23T21:05:24.473Z,9.762880
2023-05-23T21:06:24.635Z,9.762716
2023-05-23T21:07:24.463Z,9.762900
2023-05-23T21:08:24.492Z,9.762853
2023-05-23T21:09:24.461Z,9.762754
2023-05-23T21:10:24.456Z,9.763363
2023-05-23T21:11:24.414Z,9.761993
2023-05-23T21:12:24.397Z,9.754531
2023-05-23T21:13:24.419Z,9.754531
2023-05-23T21:14:24.375Z,9.754531
2023-05-23T21:15:24.376Z,9.754531
2023-05-23T21:16:24.514Z,9.763007
2023-05-23T21:17:24.420Z,9.763111
2023-05-23T21:18:24.388Z,9.762657
2023-05-23T21:19:24.397Z,9.763109
2023-05-23T21:20:24.360Z,9.763122
2023-05-23T21:21:24.325Z,9.762918
2023-05-23T21:22:24.359Z,9.762747
2023-05-23T21:23:24.315Z,9.762776
2023-05-23T21:24:25.347Z,9.762749
2023-05-23T21:25:24.307Z,9.762764
2023-05-23T21:26:24.338Z,9.762714
2023-05-23T21:27:24.287Z,9.762640
2023-05-23T21:28:24.259Z,9.762785
2023-05-23T21:29:24.254Z,9.762779
2023-05-23T21:30:25.089Z,9.762724
2023-05-23T21:31:37.190Z,9.762735
2023-05-23T21:32:26.345Z,9.762722
2023-05-23T21:33:24.208Z,9.762993
2023-05-23T21:34:24.653Z,9.762786
2023-05-23T21:35:25.183Z,9.762757
2023-05-23T21:36:24.342Z,9.762793
2023-05-23T21:37:24.154Z,9.762857
2023-05-23T21:38:25.150Z,9.762858
2023-05-23T21:39:24.134Z,9.762739
